createdAt,value
2022-09-07T00:00:40.577Z,16.00
2022-09-07T00:03:07.711Z,16.00
2022-09-07T00:05:40.735Z,15.90
2022-09-07T00:08:07.411Z,15.90
2022-09-07T00:10:34.062Z,15.90
2022-09-07T00:13:00.717Z,15.80
2022-09-07T00:15:27.768Z,15.80
2022-09-07T00:17:54.387Z,15.80
2022-09-07T00:20:21.164Z,15.80
2022-09-07T00:22:47.833Z,15.80
2022-09-07T00:25:14.680Z,15.80
2022-09-07T00:27:41.376Z,15.70
2022-09-07T00:30:08.554Z,15.70
2022-09-07T00:32:35.244Z,15.70
2022-09-07T00:35:01.982Z,15.70
2022-09-07T00:37:28.611Z,15.70
2022-09-07T00:39:55.317Z,15.60
2022-09-07T00:42:22.958Z,15.60
2022-09-07T00:45:11.648Z,15.60
2022-09-07T00:47:48.629Z,15.60
2022-09-07T00:50:34.297Z,15.60
2022-09-07T00:53:18.294Z,15.50
2022-09-07T00:55:47.148Z,15.50
2022-09-07T00:58:14.288Z,15.40
2022-09-07T01:00:41.916Z,15.40
2022-09-07T01:03:10.353Z,15.40
2022-09-07T01:05:43.779Z,15.40
2022-09-07T01:08:13.193Z,15.30
2022-09-07T01:10:40.544Z,15.30
2022-09-07T01:16:05.059Z,15.30
2022-09-07T01:19:28.452Z,15.30
2022-09-07T01:22:49.613Z,15.20
2022-09-07T01:25:38.230Z,15.20
2022-09-07T01:28:21.141Z,15.10
2022-09-07T01:31:01.615Z,15.00
2022-09-07T01:33:51.687Z,15.00
2022-09-07T01:36:28.892Z,15.00
2022-09-07T01:39:01.773Z,14.90
2022-09-07T01:42:03.826Z,14.90
2022-09-07T01:44:37.503Z,14.80
2022-09-07T01:47:15.373Z,14.80
2022-09-07T01:50:14.977Z,14.70
2022-09-07T01:52:50.888Z,14.60
2022-09-07T01:55:34.080Z,14.60
2022-09-07T01:58:10.762Z,14.60
2022-09-07T02:00:43.039Z,14.60
2022-09-07T02:03:28.495Z,14.50
2022-09-07T02:06:01.508Z,14.50
2022-09-07T02:08:38.923Z,14.50
2022-09-07T02:11:21.283Z,14.50
2022-09-07T02:14:06.240Z,14.40
2022-09-07T02:16:37.164Z,14.40
2022-09-07T02:19:09.532Z,14.40
2022-09-07T02:21:46.841Z,14.30
2022-09-07T02:24:31.100Z,14.30
2022-09-07T02:26:59.278Z,14.20
2022-09-07T02:29:30.342Z,14.20
2022-09-07T02:31:57.608Z,14.20
2022-09-07T02:34:24.385Z,14.10
2022-09-07T02:36:52.119Z,14.10
2022-09-07T02:39:18.945Z,14.10
2022-09-07T02:41:46.220Z,14.00
2022-09-07T02:44:24.878Z,14.00
2022-09-07T02:46:57.135Z,14.00
2022-09-07T02:49:33.652Z,13.90
2022-09-07T02:52:21.365Z,13.90
2022-09-07T02:55:02.741Z,13.90
2022-09-07T02:57:42.002Z,13.90
2022-09-07T03:00:16.220Z,13.80
2022-09-07T03:03:14.407Z,13.80
2022-09-07T03:05:59.869Z,13.80
2022-09-07T03:08:44.251Z,13.80
2022-09-07T03:11:11.921Z,13.80
2022-09-07T03:13:38.565Z,13.80
2022-09-07T03:16:05.577Z,13.80
2022-09-07T03:18:32.808Z,13.70
2022-09-07T03:20:59.531Z,13.70
2022-09-07T03:23:26.243Z,13.70
2022-09-07T03:25:52.908Z,13.70
2022-09-07T03:28:19.654Z,13.60
2022-09-07T03:30:47.415Z,13.60
2022-09-07T03:33:16.035Z,13.50
2022-09-07T03:35:46.577Z,13.50
2022-09-07T03:38:13.311Z,13.50
2022-09-07T03:40:40.095Z,13.50
2022-09-07T03:43:06.722Z,13.40
2022-09-07T03:45:33.741Z,13.40
2022-09-07T03:48:00.385Z,13.40
2022-09-07T03:50:27.028Z,13.40
2022-09-07T03:52:53.696Z,13.40
2022-09-07T03:55:20.371Z,13.40
2022-09-07T03:57:47.028Z,13.40
2022-09-07T04:00:14.983Z,13.30
2022-09-07T04:02:41.928Z,13.30
2022-09-07T04:05:08.997Z,13.30
2022-09-07T04:07:35.683Z,13.20
2022-09-07T04:10:02.552Z,13.20
2022-09-07T04:12:29.195Z,13.20
2022-09-07T04:14:55.825Z,13.20
2022-09-07T04:17:22.491Z,13.10
2022-09-07T04:19:49.116Z,13.20
2022-09-07T04:22:15.861Z,13.10
2022-09-07T04:24:42.473Z,13.10
2022-09-07T04:27:09.163Z,13.10
2022-09-07T04:29:35.836Z,13.10
2022-09-07T04:32:02.765Z,13.10
2022-09-07T04:34:29.541Z,13.10
2022-09-07T04:36:57.202Z,13.10
2022-09-07T04:39:23.922Z,13.10
2022-09-07T04:41:50.530Z,13.10
2022-09-07T04:44:17.353Z,13.20
2022-09-07T04:46:44.092Z,13.20
2022-09-07T04:49:11.832Z,13.20
2022-09-07T04:51:39.439Z,13.30
2022-09-07T04:54:07.057Z,13.30
2022-09-07T04:56:34.053Z,13.30
2022-09-07T04:59:03.668Z,13.30
2022-09-07T05:01:30.809Z,13.30
2022-09-07T05:04:00.393Z,13.30
2022-09-07T05:06:27.563Z,13.30
2022-09-07T05:08:54.469Z,13.30
2022-09-07T05:11:28.790Z,13.30
2022-09-07T05:13:58.094Z,13.40
2022-09-07T05:16:25.754Z,13.40
2022-09-07T05:18:55.019Z,13.40
2022-09-07T05:21:24.868Z,13.40
2022-09-07T05:23:53.455Z,13.40
2022-09-07T05:26:22.128Z,13.40
2022-09-07T05:28:50.427Z,13.40
2022-09-07T05:31:19.986Z,13.40
2022-09-07T05:36:39.528Z,13.50
2022-09-07T05:39:07.569Z,13.60
2022-09-07T05:41:34.993Z,13.60
2022-09-07T05:46:49.061Z,13.70
2022-09-07T05:49:15.675Z,13.70
2022-09-07T05:51:42.443Z,13.80
2022-09-07T05:54:10.984Z,13.80
2022-09-07T05:56:37.664Z,13.90
2022-09-07T05:59:04.801Z,13.90
2022-09-07T06:01:31.986Z,14.00
2022-09-07T06:03:58.854Z,14.00
2022-09-07T06:06:25.511Z,14.10
2022-09-07T06:08:53.926Z,14.10
2022-09-07T06:11:23.533Z,14.20
2022-09-07T06:13:50.982Z,14.20
2022-09-07T06:16:18.755Z,14.40
2022-09-07T06:18:47.193Z,14.40
2022-09-07T06:21:20.308Z,14.50
2022-09-07T06:23:48.578Z,14.60
2022-09-07T06:26:16.913Z,14.70
2022-09-07T06:28:49.194Z,14.80
2022-09-07T06:31:19.452Z,14.80
2022-09-07T06:33:47.739Z,14.90
2022-09-07T06:36:19.878Z,15.00
2022-09-07T06:38:47.567Z,15.10
2022-09-07T06:44:07.109Z,15.20
2022-09-07T06:49:20.418Z,15.50
2022-09-07T06:51:47.208Z,15.60
2022-09-07T06:57:00.599Z,15.90
2022-09-07T06:59:27.459Z,16.10
2022-09-07T07:01:54.138Z,16.20
2022-09-07T07:04:20.788Z,16.30
2022-09-07T07:06:47.415Z,16.40
2022-09-07T07:09:14.172Z,16.50
2022-09-07T07:11:43.494Z,16.60
2022-09-07T07:14:15.247Z,16.70
2022-09-07T07:16:42.046Z,16.70
2022-09-07T07:19:09.287Z,16.80
2022-09-07T07:22:01.976Z,16.80
2022-09-07T07:24:23.352Z,16.90
2022-09-07T07:26:50.015Z,16.90
2022-09-07T07:29:18.741Z,17.00
2022-09-07T07:31:47.143Z,17.00
2022-09-07T07:34:14.742Z,17.10
2022-09-07T07:36:41.444Z,17.10
2022-09-07T07:39:08.490Z,17.10
2022-09-07T07:41:56.501Z,17.20
2022-09-07T07:44:25.493Z,17.20
2022-09-07T07:46:52.327Z,17.30
2022-09-07T07:49:19.414Z,17.30
2022-09-07T07:54:36.963Z,17.50
2022-09-07T07:57:05.273Z,17.50
2022-09-07T07:59:31.856Z,17.60
2022-09-07T08:02:04.389Z,17.70
2022-09-07T08:04:33.245Z,17.80
2022-09-07T08:07:00.362Z,17.90
2022-09-07T08:09:27.300Z,18.10
2022-09-07T08:11:53.903Z,18.30
2022-09-07T08:14:21.881Z,18.40
2022-09-07T08:16:48.575Z,18.60
2022-09-07T08:19:15.228Z,18.70
2022-09-07T08:21:41.932Z,18.80
2022-09-07T08:24:08.613Z,18.90
2022-09-07T08:26:35.516Z,19.00
2022-09-07T08:29:02.100Z,19.10
2022-09-07T08:31:28.968Z,19.10
2022-09-07T08:33:55.595Z,19.20
2022-09-07T08:36:22.312Z,19.30
2022-09-07T08:38:49.017Z,19.40
2022-09-07T08:41:34.405Z,19.50
2022-09-07T08:44:11.872Z,19.60
2022-09-07T08:46:46.875Z,19.70
2022-09-07T08:49:21.488Z,19.70
2022-09-07T08:51:55.225Z,19.90
2022-09-07T08:54:21.958Z,20.10
2022-09-07T08:59:49.131Z,20.20
2022-09-07T09:02:42.437Z,20.40
2022-09-07T09:05:21.206Z,20.50
2022-09-07T09:07:57.377Z,20.60
2022-09-07T09:10:46.038Z,20.70
2022-09-07T09:13:30.585Z,20.80
2022-09-07T09:16:19.814Z,20.80
2022-09-07T09:19:01.784Z,20.80
2022-09-07T09:21:28.577Z,21.00
2022-09-07T09:24:01.943Z,21.00
2022-09-07T09:26:31.342Z,21.10
2022-09-07T09:28:58.191Z,21.20
2022-09-07T09:31:32.648Z,21.40
2022-09-07T09:34:05.490Z,21.50
2022-09-07T09:36:35.112Z,21.50
2022-09-07T09:39:21.375Z,21.60
2022-09-07T09:41:48.353Z,21.70
2022-09-07T09:44:17.479Z,21.90
2022-09-07T09:47:29.521Z,22.00
2022-09-07T09:49:40.692Z,22.00
2022-09-07T09:52:41.921Z,22.10
2022-09-07T09:55:32.717Z,22.20
2022-09-07T10:06:24.380Z,22.50
2022-09-07T10:08:59.290Z,22.60
2022-09-07T10:14:43.472Z,22.80
2022-09-07T10:17:33.564Z,22.90
2022-09-07T10:20:18.872Z,23.00
2022-09-07T10:22:54.358Z,23.20
2022-09-07T10:25:30.021Z,23.20
2022-09-07T10:28:04.804Z,23.20
2022-09-07T10:30:40.976Z,23.30
2022-09-07T10:33:30.475Z,23.50
2022-09-07T10:36:03.961Z,23.60
2022-09-07T10:38:34.644Z,23.70
2022-09-07T10:41:07.435Z,24.00
2022-09-07T10:43:51.843Z,24.20
2022-09-07T10:49:22.090Z,24.70
2022-09-07T10:52:07.564Z,24.90
2022-09-07T10:55:02.035Z,25.30
2022-09-07T10:57:49.201Z,25.50
2022-09-07T11:00:21.114Z,25.60
2022-09-07T11:06:10.718Z,25.40
2022-09-07T11:12:07.251Z,25.30
2022-09-07T11:15:12.924Z,25.30
2022-09-07T11:17:52.616Z,25.40
2022-09-07T11:20:24.240Z,25.50
2022-09-07T11:23:04.107Z,25.70
2022-09-07T11:25:58.640Z,25.70
2022-09-07T11:31:55.990Z,25.90
2022-09-07T11:34:47.621Z,26.00
2022-09-07T11:37:26.598Z,26.00
2022-09-07T11:40:00.340Z,26.00
2022-09-07T11:42:46.503Z,26.00
2022-09-07T11:45:19.892Z,26.00
2022-09-07T11:47:57.636Z,26.00
2022-09-07T11:50:24.497Z,26.10
2022-09-07T11:52:56.365Z,26.20
2022-09-07T11:55:29.435Z,26.40
2022-09-07T11:58:13.190Z,26.70
2022-09-07T12:00:55.229Z,26.90
2022-09-07T12:03:38.272Z,27.20
2022-09-07T12:06:18.552Z,27.40
2022-09-07T12:09:15.738Z,27.70
2022-09-07T12:12:13.236Z,27.70
2022-09-07T12:15:03.712Z,27.70
2022-09-07T12:17:58.253Z,27.50
2022-09-07T12:20:46.457Z,27.60
2022-09-07T12:23:15.810Z,27.50
2022-09-07T12:25:47.462Z,27.50
2022-09-07T12:28:24.085Z,27.30
2022-09-07T12:31:05.411Z,27.20
2022-09-07T12:33:38.023Z,27.20
2022-09-07T12:36:26.491Z,27.10
2022-09-07T12:39:25.658Z,27.30
2022-09-07T12:45:28.473Z,27.60
2022-09-07T12:48:16.043Z,27.70
2022-09-07T12:51:12.268Z,27.90
2022-09-07T12:53:55.516Z,28.00
2022-09-07T13:00:12.627Z,27.90
2022-09-07T13:06:11.159Z,28.30
2022-09-07T13:08:52.660Z,28.60
2022-09-07T13:11:19.237Z,28.40
2022-09-07T13:14:08.565Z,28.30
2022-09-07T13:19:50.336Z,27.90
2022-09-07T13:22:29.320Z,27.90
2022-09-07T13:25:01.518Z,27.50
2022-09-07T13:27:46.862Z,27.60
2022-09-07T13:30:16.667Z,27.60
2022-09-07T13:35:31.943Z,27.60
2022-09-07T13:38:03.520Z,27.40
2022-09-07T13:40:44.856Z,27.20
2022-09-07T13:43:23.026Z,27.20
2022-09-07T13:45:55.575Z,27.30
2022-09-07T13:48:35.566Z,27.20
2022-09-07T13:51:06.259Z,27.30
2022-09-07T13:54:00.247Z,27.40
2022-09-07T13:56:50.849Z,27.20
2022-09-07T13:59:34.859Z,27.40
2022-09-07T14:02:02.362Z,27.40
2022-09-07T14:04:41.554Z,27.40
2022-09-07T14:07:16.461Z,27.50
2022-09-07T14:09:43.251Z,27.70
2022-09-07T14:12:20.097Z,27.80
2022-09-07T14:15:09.228Z,27.90
2022-09-07T14:17:36.200Z,28.20
2022-09-07T14:20:04.110Z,28.70
2022-09-07T14:22:35.465Z,28.90
2022-09-07T14:25:05.522Z,28.80
2022-09-07T14:27:40.789Z,28.70
2022-09-07T14:30:23.386Z,28.70
2022-09-07T14:32:55.329Z,28.50
2022-09-07T14:35:25.677Z,28.50
2022-09-07T14:37:53.264Z,28.70
2022-09-07T14:40:25.364Z,28.90
2022-09-07T14:42:54.168Z,29.00
2022-09-07T14:45:23.694Z,29.00
2022-09-07T14:47:55.583Z,28.80
2022-09-07T14:50:30.896Z,29.00
2022-09-07T14:55:48.238Z,29.30
2022-09-07T14:58:14.798Z,29.10
2022-09-07T15:00:42.599Z,28.80
2022-09-07T15:03:30.298Z,28.70
2022-09-07T15:06:01.189Z,28.40
2022-09-07T15:08:46.108Z,28.30
2022-09-07T15:11:36.441Z,28.30
2022-09-07T15:14:17.822Z,28.30
2022-09-07T15:16:45.022Z,28.20
2022-09-07T15:19:18.566Z,28.20
2022-09-07T15:21:45.471Z,27.90
2022-09-07T15:24:12.460Z,27.90
2022-09-07T15:29:32.487Z,28.20
2022-09-07T15:32:04.559Z,28.60
2022-09-07T15:34:32.487Z,29.00
2022-09-07T15:37:00.234Z,29.30
2022-09-07T15:39:29.787Z,29.50
2022-09-07T15:41:57.010Z,29.50
2022-09-07T15:44:26.297Z,29.40
2022-09-07T15:49:46.058Z,28.80
2022-09-07T15:52:16.174Z,28.70
2022-09-07T15:54:43.482Z,28.40
2022-09-07T15:59:57.381Z,28.00
2022-09-07T16:05:11.134Z,27.60
2022-09-07T16:10:25.782Z,27.50
2022-09-07T16:15:46.966Z,27.40
2022-09-07T16:18:17.251Z,27.30
2022-09-07T16:20:44.685Z,27.20
2022-09-07T16:23:14.435Z,27.00
2022-09-07T16:25:43.422Z,26.90
2022-09-07T16:28:10.871Z,26.70
2022-09-07T16:30:41.012Z,26.60
2022-09-07T16:33:08.013Z,26.40
2022-09-07T16:35:34.966Z,26.20
2022-09-07T16:40:50.746Z,25.90
2022-09-07T16:43:20.956Z,25.70
2022-09-07T16:46:03.289Z,25.60
2022-09-07T16:48:32.190Z,25.30
2022-09-07T16:51:02.355Z,25.10
2022-09-07T16:53:34.652Z,24.90
2022-09-07T16:56:03.323Z,24.70
2022-09-07T16:58:36.806Z,24.60
2022-09-07T17:01:08.358Z,24.40
2022-09-07T17:03:36.758Z,24.30
2022-09-07T17:06:05.142Z,24.20
2022-09-07T17:08:33.513Z,24.10
2022-09-07T17:11:02.064Z,24.10
2022-09-07T17:13:30.212Z,24.00
2022-09-07T17:16:12.690Z,24.00
2022-09-07T17:21:33.267Z,23.70
2022-09-07T17:24:00.717Z,23.70
2022-09-07T17:26:27.925Z,23.60
2022-09-07T17:29:00.094Z,23.60
2022-09-07T17:34:20.076Z,23.40
2022-09-07T17:36:47.342Z,23.30
2022-09-07T17:39:16.380Z,23.20
2022-09-07T17:41:44.340Z,23.20
2022-09-07T17:44:11.332Z,23.20
2022-09-07T17:46:38.206Z,23.10
2022-09-07T17:49:07.864Z,23.10
2022-09-07T17:51:36.088Z,23.20
2022-09-07T17:54:09.456Z,23.20
2022-09-07T17:56:36.805Z,23.20
2022-09-07T18:01:50.591Z,22.40
2022-09-07T18:04:17.493Z,22.20
2022-09-07T18:06:44.121Z,22.00
2022-09-07T18:09:11.681Z,21.80
2022-09-07T18:11:47.116Z,21.60
2022-09-07T18:14:15.238Z,21.50
2022-09-07T18:16:43.408Z,21.30
2022-09-07T18:19:11.221Z,21.20
2022-09-07T18:21:39.350Z,21.10
2022-09-07T18:24:13.289Z,21.10
2022-09-07T18:26:40.389Z,20.90
2022-09-07T18:29:18.725Z,20.80
2022-09-07T18:31:54.662Z,20.70
2022-09-07T18:34:21.884Z,20.60
2022-09-07T18:36:48.877Z,20.50
2022-09-07T18:39:15.463Z,20.50
2022-09-07T18:41:42.298Z,20.40
2022-09-07T18:46:55.847Z,20.30
2022-09-07T18:49:22.509Z,20.20
2022-09-07T18:54:35.813Z,20.10
2022-09-07T18:57:02.384Z,20.00
2022-09-07T18:59:29.762Z,20.00
2022-09-07T19:02:03.038Z,19.90
2022-09-07T19:07:17.968Z,19.90
2022-09-07T19:09:44.545Z,19.80
2022-09-07T19:12:11.160Z,19.70
2022-09-07T19:14:37.751Z,19.70
2022-09-07T19:17:04.358Z,19.60
2022-09-07T19:19:31.050Z,19.50
2022-09-07T19:21:58.236Z,19.50
2022-09-07T19:24:25.762Z,19.50
2022-09-07T19:26:54.763Z,19.40
2022-09-07T19:29:25.151Z,19.40
2022-09-07T19:32:05.510Z,19.40
2022-09-07T19:34:37.515Z,19.30
2022-09-07T19:37:05.686Z,19.30
2022-09-07T19:39:32.440Z,19.20
2022-09-07T19:41:59.413Z,19.20
2022-09-07T19:44:26.213Z,19.20
2022-09-07T19:46:52.925Z,19.10
2022-09-07T19:49:19.767Z,19.10
2022-09-07T19:51:49.433Z,19.10
2022-09-07T19:54:16.174Z,19.00
2022-09-07T19:56:42.877Z,19.00
2022-09-07T19:59:09.815Z,19.00
2022-09-07T20:01:38.569Z,18.90
2022-09-07T20:04:07.879Z,18.90
2022-09-07T20:06:37.104Z,18.90
2022-09-07T20:09:04.239Z,18.80
2022-09-07T20:11:32.694Z,18.80
2022-09-07T20:13:59.574Z,18.70
2022-09-07T20:16:27.233Z,18.70
2022-09-07T20:18:54.568Z,18.60
2022-09-07T20:21:23.247Z,18.60
2022-09-07T20:23:50.356Z,18.50
2022-09-07T20:26:19.908Z,18.50
2022-09-07T20:28:47.117Z,18.40
2022-09-07T20:31:16.381Z,18.40
2022-09-07T20:33:44.450Z,18.30
2022-09-07T20:36:16.481Z,18.30
2022-09-07T20:38:45.736Z,18.20
2022-09-07T20:41:15.159Z,18.10
2022-09-07T20:43:41.850Z,18.10
2022-09-07T20:46:11.708Z,18.00
2022-09-07T20:48:38.960Z,18.00
2022-09-07T20:51:10.440Z,18.00
2022-09-07T20:53:37.926Z,17.90
2022-09-07T20:56:26.252Z,17.90
2022-09-07T20:59:00.032Z,17.90
2022-09-07T21:01:28.002Z,17.80
2022-09-07T21:03:57.882Z,17.80
2022-09-07T21:06:25.827Z,17.80
2022-09-07T21:08:53.229Z,17.70
2022-09-07T21:11:27.578Z,17.70
2022-09-07T21:13:56.494Z,17.70
2022-09-07T21:16:23.201Z,17.70
2022-09-07T21:18:56.564Z,17.70
2022-09-07T21:21:24.753Z,17.70
2022-09-07T21:23:55.935Z,17.60
2022-09-07T21:26:22.788Z,17.60
2022-09-07T21:28:58.034Z,17.60
2022-09-07T21:31:24.763Z,17.50
2022-09-07T21:33:56.634Z,17.50
2022-09-07T21:36:23.777Z,17.40
2022-09-07T21:38:50.740Z,17.30
2022-09-07T21:41:19.998Z,17.30
2022-09-07T21:43:47.086Z,17.30
2022-09-07T21:46:17.043Z,17.20
2022-09-07T21:48:45.470Z,17.20
2022-09-07T21:51:13.496Z,17.20
2022-09-07T21:53:41.059Z,17.10
2022-09-07T21:56:11.152Z,17.10
2022-09-07T21:58:38.572Z,17.00
2022-09-07T22:01:19.382Z,17.00
2022-09-07T22:03:47.735Z,17.00
2022-09-07T22:06:15.176Z,17.00
2022-09-07T22:08:42.573Z,16.90
2022-09-07T22:11:12.582Z,16.90
2022-09-07T22:13:39.974Z,16.90
2022-09-07T22:16:07.356Z,16.90
2022-09-07T22:18:34.698Z,16.90
2022-09-07T22:21:10.642Z,16.90
2022-09-07T22:23:42.981Z,16.90
2022-09-07T22:26:10.299Z,16.90
2022-09-07T22:28:37.516Z,16.90
2022-09-07T22:31:22.423Z,17.00
2022-09-07T22:33:51.015Z,17.00
2022-09-07T22:36:20.620Z,17.00
2022-09-07T22:38:49.510Z,17.00
2022-09-07T22:41:21.640Z,16.90
2022-09-07T22:43:51.004Z,16.90
2022-09-07T22:46:19.457Z,16.90
2022-09-07T22:48:46.462Z,16.80
2022-09-07T22:51:13.073Z,16.80
2022-09-07T22:53:41.736Z,16.70
2022-09-07T22:56:20.357Z,16.70
2022-09-07T22:58:52.305Z,16.60
2022-09-07T23:01:20.547Z,16.60
2022-09-07T23:03:47.648Z,16.60
2022-09-07T23:06:26.333Z,16.60
2022-09-07T23:08:55.148Z,16.50
2022-09-07T23:11:23.994Z,16.50
2022-09-07T23:13:55.539Z,16.50
2022-09-07T23:16:22.551Z,16.40
2022-09-07T23:18:49.420Z,16.40
2022-09-07T23:21:16.531Z,16.40
2022-09-07T23:23:43.245Z,16.30
2022-09-07T23:26:10.013Z,16.30
2022-09-07T23:28:36.812Z,16.20
2022-09-07T23:31:03.669Z,16.20
2022-09-07T23:33:30.854Z,16.20
2022-09-07T23:35:59.740Z,16.20
2022-09-07T23:38:27.245Z,16.20
2022-09-07T23:40:55.060Z,16.10
2022-09-07T23:43:22.812Z,16.10
2022-09-07T23:45:49.722Z,16.10
2022-09-07T23:48:16.313Z,16.10
2022-09-07T23:50:44.390Z,16.10
2022-09-07T23:53:11.132Z,16.10
2022-09-07T23:55:38.441Z,16.10
2022-09-07T23:58:05.425Z,16.10
